KBIL/BIL METAR and TAF weather

Enter ICAO airport designator
Station Type Date Time Source
KBIL METAR 2018/12/12 22:53 UTC NOAA

KBIL 122253Z 30026G37KT 10SM BKN080 06/M12 A2985 RMK AO2 PK WND 29037/2238 SLP118 T00561122


Station Type Date Time Source
KBIL Decoded METAR 2018/12/12 22:53 UTC NOAA

LOGAN INTERNATIONAL AIRPORT, MT, United States (KBIL) 45-49N 108-33W 1091M
Dec 12, 2018 - 05:53 PM EST / 2018.12.12 2253 UTC
Wind: from the WNW (300 degrees) at 30 MPH (26 KT) gusting to 43 MPH (37 KT):0
Visibility: 10 mile(s):0
Sky conditions: mostly cloudy
Temperature: 42.1 F (5.6 C)
Dew Point: 10.0 F (-12.2 C)
Relative Humidity: 26%
Pressure (altimeter): 29.85 in. Hg (1010 hPa)
ob: KBIL 122253Z 30026G37KT 10SM BKN080 06/M12 A2985 RMK AO2 PK WND 29037/2238 SLP118 T00561122
cycle: 23

Station Type Date Time Source
KBIL TAF 2018/12/12 18:40 UTC NOAA

TAF KBIL 121737Z 1218/1318 27020G30KT P6SM BKN100
FM122000 29030G45KT P6SM BKN080
FM130000 30020G30KT P6SM VCSH SCT040 OVC080
FM130600 26018KT P6SM SCT080 SCT150


Example: see airport list